sensor_id;sensor_type;location;lat;lon;timestamp;pressure;altitude;pressure_sealevel;temperature;humidity
49297;BME280;35163;48.878;18.040;2022-12-07T00:01:21;98116.22;;;5.48;82.21
49297;BME280;35163;48.878;18.040;2022-12-07T00:03:52;98117.94;;;5.47;82.41
49297;BME280;35163;48.878;18.040;2022-12-07T00:06:20;98118.81;;;5.46;82.18
49297;BME280;35163;48.878;18.040;2022-12-07T00:08:47;98117.13;;;5.45;82.58
49297;BME280;35163;48.878;18.040;2022-12-07T00:11:18;98114.56;;;5.45;82.13
49297;BME280;35163;48.878;18.040;2022-12-07T00:13:46;98107.72;;;5.46;82.24
49297;BME280;35163;48.878;18.040;2022-12-07T00:16:16;98108.56;;;5.45;82.30
49297;BME280;35163;48.878;18.040;2022-12-07T00:18:44;98106.91;;;5.44;82.05
49297;BME280;35163;48.878;18.040;2022-12-07T00:21:13;98108.56;;;5.45;81.95
49297;BME280;35163;48.878;18.040;2022-12-07T00:23:44;98099.19;;;5.44;82.04
49297;BME280;35163;48.878;18.040;2022-12-07T00:26:18;98106.00;;;5.45;82.05
49297;BME280;35163;48.878;18.040;2022-12-07T00:28:53;98106.00;;;5.45;82.04
49297;BME280;35163;48.878;18.040;2022-12-07T00:31:23;98105.16;;;5.44;82.00
49297;BME280;35163;48.878;18.040;2022-12-07T00:33:51;98107.72;;;5.46;81.60
49297;BME280;35163;48.878;18.040;2022-12-07T00:36:20;98098.28;;;5.46;81.71
49297;BME280;35163;48.878;18.040;2022-12-07T00:38:56;98087.22;;;5.46;82.02
49297;BME280;35163;48.878;18.040;2022-12-07T00:41:24;98094.00;;;5.47;82.00
49297;BME280;35163;48.878;18.040;2022-12-07T00:43:52;98081.19;;;5.47;81.70
49297;BME280;35163;48.878;18.040;2022-12-07T00:46:19;98091.44;;;5.47;81.89
49297;BME280;35163;48.878;18.040;2022-12-07T00:48:47;98082.06;;;5.46;81.76
49297;BME280;35163;48.878;18.040;2022-12-07T00:51:16;98083.75;;;5.47;81.85
49297;BME280;35163;48.878;18.040;2022-12-07T00:53:43;98088.88;;;5.47;82.21
49297;BME280;35163;48.878;18.040;2022-12-07T00:56:30;98085.47;;;5.46;81.69
49297;BME280;35163;48.878;18.040;2022-12-07T00:58:59;98094.06;;;5.44;81.64
49297;BME280;35163;48.878;18.040;2022-12-07T01:01:29;98082.09;;;5.43;81.55
49297;BME280;35163;48.878;18.040;2022-12-07T01:03:56;98083.81;;;5.44;81.96
49297;BME280;35163;48.878;18.040;2022-12-07T01:06:23;98086.38;;;5.44;81.16
49297;BME280;35163;48.878;18.040;2022-12-07T01:08:50;98093.22;;;5.43;81.68
49297;BME280;35163;48.878;18.040;2022-12-07T01:11:20;98083.84;;;5.42;81.43
49297;BME280;35163;48.878;18.040;2022-12-07T01:13:50;98085.53;;;5.42;81.49
49297;BME280;35163;48.878;18.040;2022-12-07T01:16:19;98091.50;;;5.44;81.55
49297;BME280;35163;48.878;18.040;2022-12-07T01:18:48;98085.53;;;5.42;80.98
49297;BME280;35163;48.878;18.040;2022-12-07T01:21:18;98081.28;;;5.39;81.35
49297;BME280;35163;48.878;18.040;2022-12-07T01:23:47;98081.28;;;5.39;81.41
49297;BME280;35163;48.878;18.040;2022-12-07T01:26:17;98089.81;;;5.41;81.36
49297;BME280;35163;48.878;18.040;2022-12-07T01:28:44;98083.03;;;5.39;81.66
49297;BME280;35163;48.878;18.040;2022-12-07T01:31:14;98092.34;;;5.43;81.39
49297;BME280;35163;48.878;18.040;2022-12-07T01:33:46;98077.88;;;5.40;81.51
49297;BME280;35163;48.878;18.040;2022-12-07T01:38:46;98084.69;;;5.41;81.41
49297;BME280;35163;48.878;18.040;2022-12-07T01:41:14;98077.03;;;5.40;81.35
49297;BME280;35163;48.878;18.040;2022-12-07T01:44:08;98085.53;;;5.42;81.46
49297;BME280;35163;48.878;18.040;2022-12-07T01:46:36;98073.59;;;5.41;81.25
49297;BME280;35163;48.878;18.040;2022-12-07T01:49:05;98070.22;;;5.39;81.37
49297;BME280;35163;48.878;18.040;2022-12-07T01:51:33;98074.50;;;5.38;81.38
49297;BME280;35163;48.878;18.040;2022-12-07T01:54:01;98073.63;;;5.38;81.47
49297;BME280;35163;48.878;18.040;2022-12-07T01:56:29;98064.25;;;5.37;81.39
49297;BME280;35163;48.878;18.040;2022-12-07T01:58:58;98076.22;;;5.36;81.54
49297;BME280;35163;48.878;18.040;2022-12-07T02:01:26;98070.28;;;5.35;80.93
49297;BME280;35163;48.878;18.040;2022-12-07T02:03:53;98066.03;;;5.33;81.89
49297;BME280;35163;48.878;18.040;2022-12-07T02:06:23;98067.72;;;5.35;81.67
49297;BME280;35163;48.878;18.040;2022-12-07T02:08:51;98063.38;;;5.38;81.72
49297;BME280;35163;48.878;18.040;2022-12-07T02:11:19;98064.25;;;5.37;81.68
49297;BME280;35163;48.878;18.040;2022-12-07T02:13:46;98059.16;;;5.35;81.98
49297;BME280;35163;48.878;18.040;2022-12-07T02:21:50;98055.72;;;5.36;81.98
49297;BME280;35163;48.878;18.040;2022-12-07T02:27:34;98061.72;;;5.35;81.96
49297;BME280;35163;48.878;18.040;2022-12-07T02:30:15;98061.75;;;5.33;81.94
49297;BME280;35163;48.878;18.040;2022-12-07T02:32:51;98059.25;;;5.30;81.72
49297;BME280;35163;48.878;18.040;2022-12-07T02:35:28;98052.41;;;5.29;82.09
49297;BME280;35163;48.878;18.040;2022-12-07T02:38:13;98059.25;;;5.29;82.05
49297;BME280;35163;48.878;18.040;2022-12-07T02:40:57;98056.69;;;5.30;81.83
49297;BME280;35163;48.878;18.040;2022-12-07T02:43:28;98054.09;;;5.32;82.31
49297;BME280;35163;48.878;18.040;2022-12-07T02:46:02;98055.78;;;5.31;82.17
49297;BME280;35163;48.878;18.040;2022-12-07T02:48:32;98046.41;;;5.30;82.60
49297;BME280;35163;48.878;18.040;2022-12-07T02:51:00;98054.09;;;5.30;82.25
49297;BME280;35163;48.878;18.040;2022-12-07T02:53:40;98042.19;;;5.26;82.09
49297;BME280;35163;48.878;18.040;2022-12-07T02:56:13;98048.13;;;5.30;82.36
49297;BME280;35163;48.878;18.040;2022-12-07T03:04:39;98048.22;;;5.25;82.60
49297;BME280;35163;48.878;18.040;2022-12-07T03:10:03;98051.56;;;5.27;82.54
49297;BME280;35163;48.878;18.040;2022-12-07T03:12:47;98050.78;;;5.25;82.61
49297;BME280;35163;48.878;18.040;2022-12-07T03:18:25;98054.16;;;5.26;83.10
49297;BME280;35163;48.878;18.040;2022-12-07T03:20:55;98047.34;;;5.25;82.88
49297;BME280;35163;48.878;18.040;2022-12-07T03:23:25;98056.75;;;5.24;82.64
49297;BME280;35163;48.878;18.040;2022-12-07T03:25:56;98043.09;;;5.22;82.71
49297;BME280;35163;48.878;18.040;2022-12-07T03:28:31;98048.25;;;5.23;83.11
49297;BME280;35163;48.878;18.040;2022-12-07T03:33:58;98040.53;;;5.25;82.92
49297;BME280;35163;48.878;18.040;2022-12-07T03:36:54;98043.03;;;5.28;82.97
49297;BME280;35163;48.878;18.040;2022-12-07T03:41:51;98045.59;;;5.28;82.80
49297;BME280;35163;48.878;18.040;2022-12-07T03:44:19;98039.59;;;5.29;82.48
49297;BME280;35163;48.878;18.040;2022-12-07T03:47:15;98039.59;;;5.29;82.48
49297;BME280;35163;48.878;18.040;2022-12-07T03:50:07;98037.84;;;5.31;82.55
49297;BME280;35163;48.878;18.040;2022-12-07T03:52:53;98034.44;;;5.31;82.89
49297;BME280;35163;48.878;18.040;2022-12-07T03:55:29;98034.44;;;5.29;82.63
49297;BME280;35163;48.878;18.040;2022-12-07T03:58:00;98038.75;;;5.29;82.18
49297;BME280;35163;48.878;18.040;2022-12-07T04:00:28;98034.44;;;5.29;82.37
49297;BME280;35163;48.878;18.040;2022-12-07T04:02:55;98033.63;;;5.27;82.62
49297;BME280;35163;48.878;18.040;2022-12-07T04:05:23;98034.44;;;5.29;82.27
49297;BME280;35163;48.878;18.040;2022-12-07T04:07:50;98039.59;;;5.29;82.56
49297;BME280;35163;48.878;18.040;2022-12-07T04:10:17;98037.00;;;5.29;82.75
49297;BME280;35163;48.878;18.040;2022-12-07T04:12:44;98034.44;;;5.31;82.96
49297;BME280;35163;48.878;18.040;2022-12-07T04:15:11;98030.19;;;5.30;82.70
49297;BME280;35163;48.878;18.040;2022-12-07T04:17:38;98034.44;;;5.29;82.55
49297;BME280;35163;48.878;18.040;2022-12-07T04:20:06;98033.59;;;5.30;82.68
49297;BME280;35163;48.878;18.040;2022-12-07T04:22:33;98027.63;;;5.30;82.29
49297;BME280;35163;48.878;18.040;2022-12-07T04:24:59;98031.03;;;5.30;82.63
49297;BME280;35163;48.878;18.040;2022-12-07T04:27:26;98031.88;;;5.29;82.75
49297;BME280;35163;48.878;18.040;2022-12-07T04:29:53;98031.03;;;5.30;82.71
49297;BME280;35163;48.878;18.040;2022-12-07T04:32:19;98036.16;;;5.30;82.26
49297;BME280;35163;48.878;18.040;2022-12-07T04:34:46;98031.84;;;5.31;82.45
49297;BME280;35163;48.878;18.040;2022-12-07T04:37:20;98030.16;;;5.31;82.41
49297;BME280;35163;48.878;18.040;2022-12-07T04:39:48;98034.41;;;5.32;82.47
49297;BME280;35163;48.878;18.040;2022-12-07T04:42:15;98034.41;;;5.32;82.42
49297;BME280;35163;48.878;18.040;2022-12-07T04:44:42;98036.97;;;5.34;82.09
49297;BME280;35163;48.878;18.040;2022-12-07T04:47:08;98032.72;;;5.31;81.92
49297;BME280;35163;48.878;18.040;2022-12-07T04:49:36;98036.97;;;5.32;82.38
49297;BME280;35163;48.878;18.040;2022-12-07T04:52:02;98038.69;;;5.33;82.17
49297;BME280;35163;48.878;18.040;2022-12-07T04:54:29;98038.66;;;5.35;82.21
49297;BME280;35163;48.878;18.040;2022-12-07T04:56:56;98039.50;;;5.35;81.98
49297;BME280;35163;48.878;18.040;2022-12-07T04:59:22;98036.09;;;5.33;82.08
49297;BME280;35163;48.878;18.040;2022-12-07T05:01:49;98049.75;;;5.35;81.90
49297;BME280;35163;48.878;18.040;2022-12-07T05:04:16;98042.91;;;5.34;82.20
49297;BME280;35163;48.878;18.040;2022-12-07T05:06:45;98042.06;;;5.35;82.34
49297;BME280;35163;48.878;18.040;2022-12-07T05:09:11;98046.28;;;5.38;81.93
49297;BME280;35163;48.878;18.040;2022-12-07T05:11:38;98045.44;;;5.38;82.14
49297;BME280;35163;48.878;18.040;2022-12-07T05:14:11;98045.44;;;5.38;81.74
49297;BME280;35163;48.878;18.040;2022-12-07T05:16:39;98038.59;;;5.38;81.72
49297;BME280;35163;48.878;18.040;2022-12-07T05:19:07;98037.72;;;5.38;81.45
49297;BME280;35163;48.878;18.040;2022-12-07T05:21:35;98037.72;;;5.38;81.57
49297;BME280;35163;48.878;18.040;2022-12-07T05:24:02;98038.56;;;5.40;81.25
49297;BME280;35163;48.878;18.040;2022-12-07T05:26:29;98042.00;;;5.39;81.39
49297;BME280;35163;48.878;18.040;2022-12-07T05:28:56;98041.16;;;5.38;81.46
49297;BME280;35163;48.878;18.040;2022-12-07T05:31:23;98051.38;;;5.40;80.89
49297;BME280;35163;48.878;18.040;2022-12-07T05:33:51;98050.56;;;5.38;80.86
49297;BME280;35163;48.878;18.040;2022-12-07T05:36:19;98052.25;;;5.39;81.01
49297;BME280;35163;48.878;18.040;2022-12-07T05:38:46;98053.13;;;5.38;80.71
49297;BME280;35163;48.878;18.040;2022-12-07T05:41:15;98054.84;;;5.37;80.48
49297;BME280;35163;48.878;18.040;2022-12-07T05:44:01;98053.13;;;5.38;80.83
49297;BME280;35163;48.878;18.040;2022-12-07T05:46:28;98053.13;;;5.38;80.81
49297;BME280;35163;48.878;18.040;2022-12-07T05:48:55;98048.00;;;5.38;81.00
49297;BME280;35163;48.878;18.040;2022-12-07T05:51:22;98053.97;;;5.38;80.69
49297;BME280;35163;48.878;18.040;2022-12-07T05:53:48;98053.97;;;5.38;80.69
49297;BME280;35163;48.878;18.040;2022-12-07T05:56:15;98054.84;;;5.39;80.78
49297;BME280;35163;48.878;18.040;2022-12-07T05:58:42;98055.69;;;5.38;80.66
49297;BME280;35163;48.878;18.040;2022-12-07T06:01:27;98057.41;;;5.39;80.74
49297;BME280;35163;48.878;18.040;2022-12-07T06:03:54;98062.50;;;5.40;80.37
49297;BME280;35163;48.878;18.040;2022-12-07T06:06:21;98068.47;;;5.41;80.44
49297;BME280;35163;48.878;18.040;2022-12-07T06:08:47;98068.47;;;5.41;80.47
49297;BME280;35163;48.878;18.040;2022-12-07T06:11:14;98075.28;;;5.42;80.65
49297;BME280;35163;48.878;18.040;2022-12-07T06:13:59;98073.56;;;5.44;80.39
49297;BME280;35163;48.878;18.040;2022-12-07T06:16:26;98073.59;;;5.42;80.00
49297;BME280;35163;48.878;18.040;2022-12-07T06:18:52;98078.72;;;5.42;79.78
49297;BME280;35163;48.878;18.040;2022-12-07T06:21:19;98073.56;;;5.44;79.86
49297;BME280;35163;48.878;18.040;2022-12-07T06:23:46;98082.06;;;5.44;79.71
49297;BME280;35163;48.878;18.040;2022-12-07T06:26:14;98080.38;;;5.45;80.02
49297;BME280;35163;48.878;18.040;2022-12-07T06:28:41;98082.06;;;5.44;79.98
49297;BME280;35163;48.878;18.040;2022-12-07T06:31:08;98079.50;;;5.46;79.80
49297;BME280;35163;48.878;18.040;2022-12-07T06:33:39;98082.91;;;5.46;80.09
49297;BME280;35163;48.878;18.040;2022-12-07T06:36:07;98087.22;;;5.46;79.62
49297;BME280;35163;48.878;18.040;2022-12-07T06:38:34;98088.03;;;5.46;79.89
49297;BME280;35163;48.878;18.040;2022-12-07T06:41:01;98088.03;;;5.46;79.76
49297;BME280;35163;48.878;18.040;2022-12-07T06:43:28;98082.06;;;5.47;79.60
49297;BME280;35163;48.878;18.040;2022-12-07T06:45:55;98094.84;;;5.49;79.78
49297;BME280;35163;48.878;18.040;2022-12-07T06:48:22;98092.25;;;5.51;79.76
49297;BME280;35163;48.878;18.040;2022-12-07T06:50:49;98090.50;;;5.51;79.63
49297;BME280;35163;48.878;18.040;2022-12-07T06:53:21;98092.22;;;5.52;79.67
49297;BME280;35163;48.878;18.040;2022-12-07T06:55:47;98089.69;;;5.51;79.90
49297;BME280;35163;48.878;18.040;2022-12-07T06:58:14;98088.84;;;5.50;79.58
49297;BME280;35163;48.878;18.040;2022-12-07T07:00:41;98095.63;;;5.51;79.41
49297;BME280;35163;48.878;18.040;2022-12-07T07:03:08;98096.50;;;5.52;79.56
49297;BME280;35163;48.878;18.040;2022-12-07T07:05:35;98095.63;;;5.51;79.36
49297;BME280;35163;48.878;18.040;2022-12-07T07:08:02;98101.59;;;5.53;79.33
49297;BME280;35163;48.878;18.040;2022-12-07T07:10:47;98093.91;;;5.53;79.16
49297;BME280;35163;48.878;18.040;2022-12-07T07:13:14;98097.28;;;5.55;79.40
49297;BME280;35163;48.878;18.040;2022-12-07T07:15:40;98093.03;;;5.56;79.33
49297;BME280;35163;48.878;18.040;2022-12-07T07:18:07;98098.94;;;5.59;78.98
49297;BME280;35163;48.878;18.040;2022-12-07T07:20:34;98097.19;;;5.62;78.81
49297;BME280;35163;48.878;18.040;2022-12-07T07:23:01;98100.63;;;5.61;78.67
49297;BME280;35163;48.878;18.040;2022-12-07T07:25:28;98100.63;;;5.61;78.99
49297;BME280;35163;48.878;18.040;2022-12-07T07:27:54;98098.03;;;5.62;78.93
49297;BME280;35163;48.878;18.040;2022-12-07T07:30:21;98098.91;;;5.63;78.67
49297;BME280;35163;48.878;18.040;2022-12-07T07:32:48;98099.72;;;5.63;78.42
49297;BME280;35163;48.878;18.040;2022-12-07T07:35:15;98104.84;;;5.63;78.57
49297;BME280;35163;48.878;18.040;2022-12-07T07:37:42;98104.84;;;5.63;78.05
49297;BME280;35163;48.878;18.040;2022-12-07T07:40:09;98108.28;;;5.64;78.24
49297;BME280;35163;48.878;18.040;2022-12-07T07:42:36;98107.44;;;5.65;78.40
49297;BME280;35163;48.878;18.040;2022-12-07T07:45:03;98105.66;;;5.67;78.21
49297;BME280;35163;48.878;18.040;2022-12-07T07:47:31;98110.75;;;5.68;78.53
49297;BME280;35163;48.878;18.040;2022-12-07T07:49:58;98114.13;;;5.72;78.15
49297;BME280;35163;48.878;18.040;2022-12-07T07:52:25;98109.84;;;5.72;78.16
49297;BME280;35163;48.878;18.040;2022-12-07T07:54:52;98103.84;;;5.75;78.13
49297;BME280;35163;48.878;18.040;2022-12-07T07:57:18;98103.78;;;5.78;78.07
49297;BME280;35163;48.878;18.040;2022-12-07T07:59:45;98108.84;;;5.81;77.97
49297;BME280;35163;48.878;18.040;2022-12-07T08:02:14;98107.94;;;5.84;78.24
49297;BME280;35163;48.878;18.040;2022-12-07T08:04:42;98116.47;;;5.86;77.66
49297;BME280;35163;48.878;18.040;2022-12-07T08:07:09;98109.59;;;5.88;78.21
49297;BME280;35163;48.878;18.040;2022-12-07T08:09:36;98112.13;;;5.90;77.59
49297;BME280;35163;48.878;18.040;2022-12-07T08:12:03;98119.78;;;5.91;78.05
49297;BME280;35163;48.878;18.040;2022-12-07T08:14:30;98112.06;;;5.93;77.37
49297;BME280;35163;48.878;18.040;2022-12-07T08:16:57;98123.16;;;5.95;77.58
49297;BME280;35163;48.878;18.040;2022-12-07T08:19:24;98123.09;;;5.98;77.58
49297;BME280;35163;48.878;18.040;2022-12-07T08:21:51;98121.38;;;5.99;76.99
49297;BME280;35163;48.878;18.040;2022-12-07T08:24:18;98128.19;;;6.01;77.36
49297;BME280;35163;48.878;18.040;2022-12-07T08:26:44;98134.19;;;6.00;76.93
49297;BME280;35163;48.878;18.040;2022-12-07T08:29:11;98133.34;;;6.00;76.66
49297;BME280;35163;48.878;18.040;2022-12-07T08:31:39;98127.31;;;6.02;76.74
49297;BME280;35163;48.878;18.040;2022-12-07T08:34:06;98134.13;;;6.03;76.60
49297;BME280;35163;48.878;18.040;2022-12-07T08:36:33;98134.09;;;6.06;76.67
49297;BME280;35163;48.878;18.040;2022-12-07T08:39:00;98141.75;;;6.10;76.74
49297;BME280;35163;48.878;18.040;2022-12-07T08:41:46;98141.75;;;6.11;76.30
49297;BME280;35163;48.878;18.040;2022-12-07T08:44:13;98140.88;;;6.12;76.05
49297;BME280;35163;48.878;18.040;2022-12-07T08:46:53;98139.13;;;6.14;76.07
49297;BME280;35163;48.878;18.040;2022-12-07T08:49:41;98132.25;;;6.15;76.45
49297;BME280;35163;48.878;18.040;2022-12-07T08:52:08;98145.09;;;6.15;76.27
49297;BME280;35163;48.878;18.040;2022-12-07T08:54:36;98141.69;;;6.14;76.46
49297;BME280;35163;48.878;18.040;2022-12-07T08:57:06;98145.97;;;6.14;76.49
49297;BME280;35163;48.878;18.040;2022-12-07T08:59:34;98147.66;;;6.15;76.73
49297;BME280;35163;48.878;18.040;2022-12-07T09:02:03;98147.66;;;6.16;76.51
49297;BME280;35163;48.878;18.040;2022-12-07T09:04:30;98144.19;;;6.17;76.72
49297;BME280;35163;48.878;18.040;2022-12-07T09:06:57;98145.91;;;6.17;75.89
49297;BME280;35163;48.878;18.040;2022-12-07T09:09:24;98151.03;;;6.17;76.54
49297;BME280;35163;48.878;18.040;2022-12-07T09:11:50;98149.38;;;6.16;76.44
49297;BME280;35163;48.878;18.040;2022-12-07T09:14:17;98150.22;;;6.16;76.51
49297;BME280;35163;48.878;18.040;2022-12-07T09:16:45;98147.66;;;6.16;76.43
49297;BME280;35163;48.878;18.040;2022-12-07T09:19:11;98144.22;;;6.16;76.60
49297;BME280;35163;48.878;18.040;2022-12-07T09:21:38;98144.25;;;6.14;76.48
49297;BME280;35163;48.878;18.040;2022-12-07T09:24:05;98149.38;;;6.16;76.16
49297;BME280;35163;48.878;18.040;2022-12-07T09:26:32;98145.97;;;6.14;76.11
49297;BME280;35163;48.878;18.040;2022-12-07T09:28:59;98151.13;;;6.12;76.55
49297;BME280;35163;48.878;18.040;2022-12-07T09:31:25;98141.75;;;6.11;76.47
49297;BME280;35163;48.878;18.040;2022-12-07T09:33:57;98144.28;;;6.13;76.34
49297;BME280;35163;48.878;18.040;2022-12-07T09:36:26;98139.16;;;6.13;76.83
49297;BME280;35163;48.878;18.040;2022-12-07T09:38:53;98129.69;;;6.15;76.48
49297;BME280;35163;48.878;18.040;2022-12-07T09:41:20;98130.50;;;6.17;76.43
49297;BME280;35163;48.878;18.040;2022-12-07T09:43:49;98123.63;;;6.19;76.85
49297;BME280;35163;48.878;18.040;2022-12-07T09:46:17;98116.75;;;6.21;76.59
49297;BME280;35163;48.878;18.040;2022-12-07T09:48:47;98127.84;;;6.22;76.73
49297;BME280;35163;48.878;18.040;2022-12-07T09:51:20;98118.38;;;6.25;76.96
49297;BME280;35163;48.878;18.040;2022-12-07T09:53:52;98116.63;;;6.27;76.56
49297;BME280;35163;48.878;18.040;2022-12-07T09:56:19;98120.00;;;6.29;76.84
49297;BME280;35163;48.878;18.040;2022-12-07T09:58:48;98108.03;;;6.30;77.14
49297;BME280;35163;48.878;18.040;2022-12-07T10:01:17;98108.06;;;6.28;76.66
49297;BME280;35163;48.878;18.040;2022-12-07T10:03:50;98118.28;;;6.31;76.29
49297;BME280;35163;48.878;18.040;2022-12-07T10:06:17;98105.47;;;6.30;76.05
49297;BME280;35163;48.878;18.040;2022-12-07T10:08:44;98105.41;;;6.33;76.09
49297;BME280;35163;48.878;18.040;2022-12-07T10:11:11;98104.53;;;6.32;76.37
49297;BME280;35163;48.878;18.040;2022-12-07T10:13:40;98106.22;;;6.34;76.38
49297;BME280;35163;48.878;18.040;2022-12-07T10:18:54;98102.81;;;6.35;76.15
49297;BME280;35163;48.878;18.040;2022-12-07T10:21:23;98095.13;;;6.33;75.87
49297;BME280;35163;48.878;18.040;2022-12-07T10:26:41;98099.41;;;6.32;75.50
49297;BME280;35163;48.878;18.040;2022-12-07T10:29:21;98102.00;;;6.31;75.58
49297;BME280;35163;48.878;18.040;2022-12-07T10:31:58;98100.28;;;6.31;75.49
49297;BME280;35163;48.878;18.040;2022-12-07T10:34:30;98086.59;;;6.31;75.44
49297;BME280;35163;48.878;18.040;2022-12-07T10:39:52;98083.16;;;6.32;75.31
49297;BME280;35163;48.878;18.040;2022-12-07T10:42:24;98082.28;;;6.33;75.34
49297;BME280;35163;48.878;18.040;2022-12-07T10:45:14;98077.19;;;6.31;75.19
49297;BME280;35163;48.878;18.040;2022-12-07T10:54:18;98079.72;;;6.33;75.12
49297;BME280;35163;48.878;18.040;2022-12-07T10:56:53;98065.97;;;6.36;75.10
49297;BME280;35163;48.878;18.040;2022-12-07T10:59:50;98065.91;;;6.37;74.56
49297;BME280;35163;48.878;18.040;2022-12-07T11:08:01;98058.16;;;6.42;74.93
49297;BME280;35163;48.878;18.040;2022-12-07T11:10:52;98058.19;;;6.40;75.02
49297;BME280;35163;48.878;18.040;2022-12-07T11:16:23;98056.44;;;6.41;74.49
49297;BME280;35163;48.878;18.040;2022-12-07T11:19:14;98054.72;;;6.41;74.05
49297;BME280;35163;48.878;18.040;2022-12-07T11:22:17;98047.09;;;6.38;74.55
49297;BME280;35163;48.878;18.040;2022-12-07T11:27:47;98053.03;;;6.40;74.64
49297;BME280;35163;48.878;18.040;2022-12-07T11:30:20;98049.63;;;6.40;74.44
49297;BME280;35163;48.878;18.040;2022-12-07T11:33:01;98045.31;;;6.42;74.65
49297;BME280;35163;48.878;18.040;2022-12-07T11:36:17;98040.13;;;6.43;74.80
49297;BME280;35163;48.878;18.040;2022-12-07T11:38:52;98049.56;;;6.43;74.74
49297;BME280;35163;48.878;18.040;2022-12-07T11:41:27;98053.84;;;6.42;74.61
49297;BME280;35163;48.878;18.040;2022-12-07T11:44:13;98051.22;;;6.44;74.78
49297;BME280;35163;48.878;18.040;2022-12-07T11:46:58;98048.66;;;6.46;74.73
49297;BME280;35163;48.878;18.040;2022-12-07T11:49:43;98045.22;;;6.47;74.58
49297;BME280;35163;48.878;18.040;2022-12-07T11:54:52;98032.31;;;6.48;74.09
49297;BME280;35163;48.878;18.040;2022-12-07T11:57:42;98035.72;;;6.50;74.39
49297;BME280;35163;48.878;18.040;2022-12-07T12:00:15;98041.72;;;6.49;74.00
49297;BME280;35163;48.878;18.040;2022-12-07T12:02:52;98037.38;;;6.51;73.77
49297;BME280;35163;48.878;18.040;2022-12-07T12:05:24;98044.25;;;6.52;73.63
49297;BME280;35163;48.878;18.040;2022-12-07T12:08:16;98045.13;;;6.50;73.69
49297;BME280;35163;48.878;18.040;2022-12-07T12:11:28;98044.25;;;6.52;73.43
49297;BME280;35163;48.878;18.040;2022-12-07T12:22:15;98043.34;;;6.53;73.49
49297;BME280;35163;48.878;18.040;2022-12-07T12:24:45;98037.31;;;6.54;73.67
49297;BME280;35163;48.878;18.040;2022-12-07T12:27:37;98038.97;;;6.59;73.15
49297;BME280;35163;48.878;18.040;2022-12-07T12:30:23;98031.22;;;6.60;73.44
49297;BME280;35163;48.878;18.040;2022-12-07T12:32:51;98035.38;;;6.66;73.59
49297;BME280;35163;48.878;18.040;2022-12-07T12:35:34;98035.31;;;6.69;73.80
49297;BME280;35163;48.878;18.040;2022-12-07T12:40:55;98028.34;;;6.74;73.59
49297;BME280;35163;48.878;18.040;2022-12-07T12:51:45;98030.25;;;6.66;69.76
49297;BME280;35163;48.878;18.040;2022-12-07T12:54:37;98024.22;;;6.67;68.51
49297;BME280;35163;48.878;18.040;2022-12-07T12:59:38;98017.25;;;6.72;67.12
49297;BME280;35163;48.878;18.040;2022-12-07T13:16:59;98027.72;;;7.02;64.86
49297;BME280;35163;48.878;18.040;2022-12-07T13:25:07;98037.94;;;7.05;64.04
49297;BME280;35163;48.878;18.040;2022-12-07T13:27:38;98039.66;;;7.05;63.39
49297;BME280;35163;48.878;18.040;2022-12-07T13:30:15;98039.63;;;7.07;63.22
49297;BME280;35163;48.878;18.040;2022-12-07T13:32:43;98042.28;;;7.03;63.70
49297;BME280;35163;48.878;18.040;2022-12-07T13:35:33;98044.81;;;7.05;63.47
49297;BME280;35163;48.878;18.040;2022-12-07T13:38:02;98041.31;;;7.08;63.44
49297;BME280;35163;48.878;18.040;2022-12-07T13:40:32;98044.69;;;7.10;62.63
49297;BME280;35163;48.878;18.040;2022-12-07T13:43:02;98045.59;;;7.09;63.00
49297;BME280;35163;48.878;18.040;2022-12-07T13:45:32;98049.78;;;7.11;62.45
49297;BME280;35163;48.878;18.040;2022-12-07T13:48:28;98055.06;;;7.07;61.95
49297;BME280;35163;48.878;18.040;2022-12-07T13:50:59;98045.66;;;7.05;61.87
49297;BME280;35163;48.878;18.040;2022-12-07T13:53:26;98048.34;;;6.99;61.93
49297;BME280;35163;48.878;18.040;2022-12-07T13:56:14;98048.50;;;6.93;61.75
49297;BME280;35163;48.878;18.040;2022-12-07T13:58:52;98043.50;;;6.87;61.51
49297;BME280;35163;48.878;18.040;2022-12-07T14:01:18;98049.53;;;6.84;62.22
49297;BME280;35163;48.878;18.040;2022-12-07T14:03:45;98044.44;;;6.83;62.21
49297;BME280;35163;48.878;18.040;2022-12-07T14:06:26;98053.91;;;6.80;62.27
49297;BME280;35163;48.878;18.040;2022-12-07T14:09:22;98042.84;;;6.77;62.88
49297;BME280;35163;48.878;18.040;2022-12-07T14:11:52;98045.44;;;6.75;62.69
49297;BME280;35163;48.878;18.040;2022-12-07T14:14:28;98044.66;;;6.72;62.62
49297;BME280;35163;48.878;18.040;2022-12-07T14:19:45;98037.94;;;6.67;62.72
49297;BME280;35163;48.878;18.040;2022-12-07T14:22:34;98045.72;;;6.63;62.92
49297;BME280;35163;48.878;18.040;2022-12-07T14:25:20;98055.19;;;6.61;63.14
49297;BME280;35163;48.878;18.040;2022-12-07T14:28:00;98053.53;;;6.58;63.34
49297;BME280;35163;48.878;18.040;2022-12-07T14:30:29;98050.16;;;6.54;62.34
49297;BME280;35163;48.878;18.040;2022-12-07T14:33:04;98049.31;;;6.55;63.35
49297;BME280;35163;48.878;18.040;2022-12-07T14:35:32;98055.38;;;6.51;63.45
49297;BME280;35163;48.878;18.040;2022-12-07T14:37:59;98051.94;;;6.51;63.41
49297;BME280;35163;48.878;18.040;2022-12-07T14:40:28;98055.44;;;6.48;63.68
49297;BME280;35163;48.878;18.040;2022-12-07T14:43:01;98052.94;;;6.45;63.98
49297;BME280;35163;48.878;18.040;2022-12-07T14:45:28;98053.81;;;6.44;63.73
49297;BME280;35163;48.878;18.040;2022-12-07T14:47:55;98054.69;;;6.43;64.12
49297;BME280;35163;48.878;18.040;2022-12-07T14:50:49;98064.09;;;6.42;64.41
49297;BME280;35163;48.878;18.040;2022-12-07T14:53:42;98058.97;;;6.42;64.19
49297;BME280;35163;48.878;18.040;2022-12-07T14:56:13;98055.63;;;6.40;64.04
49297;BME280;35163;48.878;18.040;2022-12-07T14:58:40;98062.47;;;6.40;64.44
49297;BME280;35163;48.878;18.040;2022-12-07T15:01:07;98059.97;;;6.37;64.92
49297;BME280;35163;48.878;18.040;2022-12-07T15:03:33;98057.44;;;6.35;64.54
49297;BME280;35163;48.878;18.040;2022-12-07T15:06:05;98058.25;;;6.36;65.06